Time;durP1;ratioP1;P1;durP2;ratioP2;P2;SDS_P1;SDS_P2;PMS_P1;PMS_P2;Temp;Humidity;BMP_temperature;BMP_pressure;BME280_temperature;BME280_humidity;BME280_pressure;Samples;Min_cycle;Max_cycle;Signal;HPM_P1;HPM_P2
2021/10/03 00:02:29;;;;;;;6.43;5.80;;;17.00;99.90;;;;;;5029207;28;20193;-52
2021/10/03 00:04:55;;;;;;;7.55;6.18;;;16.90;99.90;;;;;;5031717;28;20178;-50
2021/10/03 00:07:21;;;;;;;6.55;5.95;;;16.90;99.90;;;;;;5028714;28;20198;-51
2021/10/03 00:09:52;;;;;;;6.37;5.83;;;17.10;99.90;;;;;;5026839;28;20186;-51
2021/10/03 00:12:18;;;;;;;6.30;5.70;;;16.90;99.90;;;;;;5032021;28;20441;-52
2021/10/03 00:14:45;;;;;;;6.53;5.90;;;16.70;99.90;;;;;;5028774;28;20190;-52
2021/10/03 00:17:11;;;;;;;5.80;5.30;;;16.70;99.90;;;;;;5032497;28;20193;-52
2021/10/03 00:19:37;;;;;;;5.80;5.30;;;16.60;99.90;;;;;;5027848;28;20222;-52
2021/10/03 00:22:04;;;;;;;5.78;5.18;;;16.50;99.90;;;;;;5032361;28;20442;-51
2021/10/03 00:24:30;;;;;;;7.05;5.55;;;16.40;99.90;;;;;;5029168;28;20189;-52
2021/10/03 00:26:57;;;;;;;5.45;5.05;;;16.50;99.90;;;;;;5031711;28;20537;-52
2021/10/03 00:29:23;;;;;;;6.20;5.65;;;16.60;99.90;;;;;;5027646;28;20293;-51
2021/10/03 00:31:49;;;;;;;5.65;5.15;;;16.50;99.90;;;;;;5039148;28;20186;-52
2021/10/03 00:34:15;;;;;;;6.63;5.70;;;16.60;99.90;;;;;;5039855;28;20677;-51
2021/10/03 00:36:40;;;;;;;6.90;6.20;;;16.40;99.90;;;;;;5024402;28;20225;-52
2021/10/03 00:39:06;;;;;;;6.03;5.43;;;16.40;99.90;;;;;;5033686;28;20236;-51
2021/10/03 00:41:32;;;;;;;6.30;5.70;;;16.30;99.90;;;;;;5029858;28;20556;-52
2021/10/03 00:43:58;;;;;;;6.10;5.50;;;16.20;99.90;;;;;;5031437;28;20182;-52
2021/10/03 00:46:23;;;;;;;6.03;5.47;;;16.20;99.90;;;;;;5031103;28;20557;-52
2021/10/03 00:48:49;;;;;;;5.77;5.17;;;16.20;99.90;;;;;;5031084;28;20579;-52
2021/10/03 00:51:15;;;;;;;5.90;5.40;;;16.40;99.90;;;;;;5031206;28;20248;-51
2021/10/03 00:53:41;;;;;;;6.00;5.30;;;16.10;99.90;;;;;;5027963;28;20247;-51
2021/10/03 00:56:09;;;;;;;6.00;5.50;;;16.20;99.90;;;;;;5030921;28;20200;-52
2021/10/03 00:58:34;;;;;;;6.40;5.55;;;16.40;99.90;;;;;;5038485;28;20576;-52
2021/10/03 01:01:01;;;;;;;5.90;5.30;;;16.30;99.90;;;;;;5030687;28;20178;-52
2021/10/03 01:03:27;;;;;;;6.22;5.63;;;16.00;99.90;;;;;;5030666;28;20214;-51
2021/10/03 01:05:53;;;;;;;5.80;5.23;;;16.10;99.90;;;;;;5030879;28;20217;-52
2021/10/03 01:08:18;;;;;;;6.37;5.77;;;15.90;99.90;;;;;;5028085;28;20468;-52
2021/10/03 01:10:44;;;;;;;5.90;5.30;;;16.00;99.90;;;;;;5026993;28;20190;-51
2021/10/03 01:13:12;;;;;;;5.93;5.40;;;16.20;99.90;;;;;;5038105;28;20648;-52
2021/10/03 01:15:41;;;;;;;6.07;5.55;;;16.10;99.90;;;;;;5027812;28;20198;-52
2021/10/03 01:18:08;;;;;;;6.53;5.28;;;16.30;99.90;;;;;;5023283;28;20258;-52
2021/10/03 01:20:34;;;;;;;7.57;5.15;;;16.00;99.90;;;;;;5030385;28;20178;-52
2021/10/03 01:23:03;;;;;;;6.72;5.63;;;16.30;99.90;;;;;;5028161;28;20213;-52
2021/10/03 01:25:43;;;;;;;6.03;5.53;;;16.30;99.90;;;;;;5038775;28;20177;-52
2021/10/03 01:28:09;;;;;;;6.10;5.50;;;16.50;99.90;;;;;;5031657;28;20218;-52
2021/10/03 01:30:37;;;;;;;6.70;6.00;;;16.50;99.90;;;;;;5029163;28;20248;-52
2021/10/03 01:33:03;;;;;;;7.88;6.15;;;16.20;99.90;;;;;;5030653;28;20174;-52
2021/10/03 01:35:28;;;;;;;6.40;5.80;;;16.40;99.90;;;;;;5030263;28;20256;-51
2021/10/03 01:37:54;;;;;;;6.10;5.60;;;16.30;99.90;;;;;;5023581;28;20819;-52
2021/10/03 01:40:22;;;;;;;5.20;4.80;;;16.20;99.90;;;;;;5029865;28;20178;-52
2021/10/03 01:42:49;;;;;;;6.65;5.70;;;16.30;99.90;;;;;;5036839;28;20946;-52
2021/10/03 01:45:17;;;;;;;6.18;5.68;;;16.50;99.90;;;;;;5026033;28;20209;-52
2021/10/03 01:48:01;;;;;;;6.03;5.38;;;16.30;99.90;;;;;;5032902;28;20246;-52
2021/10/03 01:50:28;;;;;;;6.80;5.13;;;16.40;99.90;;;;;;5029949;28;20212;-51
2021/10/03 01:52:53;;;;;;;5.90;5.32;;;16.40;99.90;;;;;;5032374;28;20272;-52
2021/10/03 01:55:19;;;;;;;6.30;5.70;;;16.30;99.90;;;;;;5030524;28;20277;-51
2021/10/03 01:57:44;;;;;;;5.20;4.70;;;16.40;99.90;;;;;;5030989;28;20209;-51
2021/10/03 02:00:10;;;;;;;6.10;5.50;;;16.50;99.90;;;;;;5022314;28;20224;-51
2021/10/03 02:02:36;;;;;;;5.45;4.95;;;16.40;99.90;;;;;;5027029;28;20201;-51
2021/10/03 02:05:02;;;;;;;5.80;5.20;;;16.20;99.90;;;;;;5030784;28;20181;-51
2021/10/03 02:07:28;;;;;;;5.82;5.35;;;16.30;99.90;;;;;;5036405;28;20541;-51
2021/10/03 02:09:54;;;;;;;5.75;5.25;;;16.30;99.90;;;;;;5031478;28;20190;-51
2021/10/03 02:12:20;;;;;;;6.30;5.20;;;16.60;99.90;;;;;;5040098;28;20201;-52
2021/10/03 02:14:46;;;;;;;5.50;5.00;;;16.20;99.90;;;;;;5042012;28;20192;-51
2021/10/03 02:17:12;;;;;;;5.00;4.63;;;16.40;99.90;;;;;;5041106;28;20292;-51
2021/10/03 02:19:40;;;;;;;5.23;4.73;;;16.20;99.90;;;;;;5031926;28;20363;-51
2021/10/03 02:22:07;;;;;;;5.20;4.70;;;16.40;99.90;;;;;;5036444;28;20182;-51
2021/10/03 02:24:33;;;;;;;5.25;4.32;;;16.30;99.90;;;;;;5031557;28;20241;-51
2021/10/03 02:26:58;;;;;;;4.80;4.40;;;16.50;99.90;;;;;;5037003;28;20715;-51
2021/10/03 02:29:24;;;;;;;4.90;4.40;;;16.60;99.90;;;;;;5030321;28;20217;-51
2021/10/03 02:31:49;;;;;;;5.30;4.80;;;16.50;99.90;;;;;;5036415;28;20190;-51
2021/10/03 02:34:15;;;;;;;5.70;5.07;;;16.60;99.90;;;;;;5035785;28;20243;-51
2021/10/03 02:36:41;;;;;;;5.13;4.63;;;16.50;99.90;;;;;;5034785;28;20208;-51
2021/10/03 02:39:07;;;;;;;4.80;4.40;;;16.50;99.90;;;;;;5032627;28;20221;-51
2021/10/03 02:41:33;;;;;;;5.30;4.80;;;16.50;99.90;;;;;;5035604;28;20190;-51
2021/10/03 02:43:59;;;;;;;5.30;4.70;;;16.90;99.90;;;;;;5033286;28;20189;-51
2021/10/03 02:46:27;;;;;;;7.40;6.70;;;16.80;99.90;;;;;;5031761;28;20182;-51
2021/10/03 02:48:53;;;;;;;4.50;4.10;;;16.70;99.90;;;;;;5037138;28;20300;-51
2021/10/03 02:51:21;;;;;;;4.70;4.30;;;16.60;99.90;;;;;;5041180;28;20285;-51
2021/10/03 02:53:47;;;;;;;4.75;4.28;;;16.60;99.90;;;;;;5035163;28;20220;-51
2021/10/03 02:56:15;;;;;;;4.80;4.40;;;16.70;99.90;;;;;;5036459;28;20601;-51
2021/10/03 02:58:41;;;;;;;5.38;4.88;;;16.60;99.90;;;;;;5040282;28;20220;-51
2021/10/03 03:01:06;;;;;;;4.33;3.93;;;16.70;99.90;;;;;;5034971;28;20190;-51
2021/10/03 03:03:33;;;;;;;5.53;5.10;;;16.60;99.90;;;;;;5037304;28;20459;-51
2021/10/03 03:05:58;;;;;;;4.82;4.30;;;16.70;99.90;;;;;;5036253;28;20186;-51
2021/10/03 03:08:24;;;;;;;4.63;4.23;;;16.50;99.90;;;;;;5033709;28;20209;-51
2021/10/03 03:10:50;;;;;;;5.03;4.53;;;16.30;99.90;;;;;;5036156;28;20248;-51
2021/10/03 03:13:16;;;;;;;4.50;4.10;;;16.50;99.90;;;;;;5036387;28;20190;-51
2021/10/03 03:15:41;;;;;;;5.37;4.30;;;16.50;99.90;;;;;;5032510;28;20447;-51
2021/10/03 03:18:07;;;;;;;4.30;4.00;;;16.50;99.90;;;;;;5034165;28;20210;-51
2021/10/03 03:20:33;;;;;;;4.67;4.10;;;16.30;99.90;;;;;;5032382;28;20643;-51
2021/10/03 03:22:58;;;;;;;5.33;4.50;;;16.50;99.90;;;;;;5030974;28;20279;-51
2021/10/03 03:25:24;;;;;;;6.60;5.00;;;16.60;99.90;;;;;;5024898;28;20441;-51
2021/10/03 03:27:50;;;;;;;6.10;4.50;;;16.50;99.90;;;;;;5031404;28;20206;-51
2021/10/03 03:30:16;;;;;;;5.90;4.47;;;16.30;99.90;;;;;;5015934;28;20190;-51
2021/10/03 03:32:41;;;;;;;4.63;4.23;;;16.40;99.90;;;;;;5032883;28;20281;-51
2021/10/03 03:35:09;;;;;;;4.13;3.80;;;16.20;99.90;;;;;;5032700;28;20209;-51
2021/10/03 03:37:35;;;;;;;5.53;4.28;;;16.40;99.90;;;;;;5027344;28;20452;-51
2021/10/03 03:40:01;;;;;;;4.50;4.07;;;16.20;99.90;;;;;;5028959;28;20309;-51
2021/10/03 03:42:26;;;;;;;5.13;4.13;;;16.30;99.90;;;;;;5023017;28;20215;-51
2021/10/03 03:44:53;;;;;;;4.07;3.77;;;16.30;99.90;;;;;;5027216;28;20217;-51
2021/10/03 03:47:19;;;;;;;4.30;3.90;;;16.30;99.90;;;;;;5032121;28;20240;-51
2021/10/03 03:49:44;;;;;;;4.77;4.37;;;16.30;99.90;;;;;;5039073;28;20187;-51
2021/10/03 03:52:10;;;;;;;4.40;4.10;;;16.40;99.90;;;;;;5031491;28;20191;-51
2021/10/03 03:54:36;;;;;;;4.87;4.37;;;16.10;99.90;;;;;;5032431;28;20631;-51
2021/10/03 03:57:02;;;;;;;4.60;4.20;;;16.10;99.90;;;;;;5035125;28;20452;-51
2021/10/03 03:59:27;;;;;;;4.60;4.20;;;16.10;99.90;;;;;;5027141;28;20214;-51
2021/10/03 04:01:53;;;;;;;4.60;4.20;;;16.30;99.90;;;;;;5029945;28;20189;-51
2021/10/03 04:04:19;;;;;;;4.90;4.50;;;16.20;99.90;;;;;;5031833;28;20182;-51
2021/10/03 04:06:44;;;;;;;4.50;4.10;;;16.50;99.90;;;;;;5035278;28;20189;-51
2021/10/03 04:09:10;;;;;;;5.97;4.70;;;16.30;99.90;;;;;;5039587;28;20229;-51
2021/10/03 04:11:35;;;;;;;5.90;4.73;;;16.20;99.90;;;;;;5039065;28;20186;-51
2021/10/03 04:14:01;;;;;;;4.70;4.10;;;16.20;99.90;;;;;;5029526;28;20221;-51
2021/10/03 04:16:27;;;;;;;4.80;4.33;;;16.10;99.90;;;;;;5030175;28;20546;-51
2021/10/03 04:18:52;;;;;;;4.40;4.10;;;16.30;99.90;;;;;;5028768;28;20557;-52
2021/10/03 04:21:18;;;;;;;4.77;4.37;;;16.40;99.90;;;;;;5036239;28;20544;-51
2021/10/03 04:23:44;;;;;;;6.47;4.60;;;16.30;99.90;;;;;;5027473;28;20193;-51
2021/10/03 04:26:10;;;;;;;4.25;3.85;;;16.30;99.90;;;;;;5032054;28;20182;-51
2021/10/03 04:28:35;;;;;;;4.30;3.83;;;16.30;99.90;;;;;;5029991;28;20217;-51
2021/10/03 04:31:01;;;;;;;4.20;3.80;;;16.20;99.90;;;;;;5025125;28;20551;-51
2021/10/03 04:33:26;;;;;;;4.43;4.10;;;16.10;99.90;;;;;;5030162;28;20273;-52
2021/10/03 04:35:52;;;;;;;4.67;4.27;;;16.20;99.90;;;;;;5030711;28;20200;-51
2021/10/03 04:38:18;;;;;;;5.33;4.60;;;16.20;99.90;;;;;;5024050;28;20214;-51
2021/10/03 04:40:43;;;;;;;4.10;3.80;;;16.20;99.90;;;;;;5026824;28;20186;-51
2021/10/03 04:43:09;;;;;;;4.77;3.73;;;16.20;99.90;;;;;;5031128;28;20194;-51
2021/10/03 04:45:34;;;;;;;4.80;4.20;;;16.20;99.90;;;;;;5028377;28;20632;-51
2021/10/03 04:48:01;;;;;;;4.23;3.93;;;16.30;99.90;;;;;;5033122;28;20316;-51
2021/10/03 04:50:27;;;;;;;4.40;3.90;;;16.20;99.90;;;;;;5030088;28;20196;-51
2021/10/03 04:52:53;;;;;;;4.13;3.73;;;16.10;99.90;;;;;;5025870;28;20191;-51
2021/10/03 04:55:18;;;;;;;5.23;4.73;;;16.10;99.90;;;;;;5030595;28;20277;-51
2021/10/03 04:57:44;;;;;;;4.23;3.93;;;16.20;99.90;;;;;;5030900;28;20214;-51
2021/10/03 05:00:10;;;;;;;3.90;3.60;;;16.30;99.90;;;;;;5032036;28;20217;-51
2021/10/03 05:02:36;;;;;;;7.32;4.78;;;16.20;99.90;;;;;;5031551;28;20183;-51
2021/10/03 05:05:03;;;;;;;3.87;3.37;;;16.00;99.90;;;;;;5036735;28;20277;-51
2021/10/03 05:07:28;;;;;;;4.80;4.22;;;16.50;99.90;;;;;;5027815;28;20187;-51
2021/10/03 05:09:54;;;;;;;4.90;4.23;;;16.30;99.90;;;;;;5035380;28;20189;-52
2021/10/03 05:12:19;;;;;;;3.90;3.43;;;16.30;99.90;;;;;;5030227;28;20190;-50
2021/10/03 05:14:45;;;;;;;3.60;3.30;;;16.30;99.90;;;;;;5026618;28;20221;-51
2021/10/03 05:17:11;;;;;;;4.03;3.63;;;16.50;99.90;;;;;;5030857;28;20194;-52
2021/10/03 05:19:36;;;;;;;4.80;4.40;;;16.40;99.90;;;;;;5027320;28;20279;-51
2021/10/03 05:22:03;;;;;;;4.03;3.63;;;16.50;99.90;;;;;;5028996;28;20179;-51
2021/10/03 05:24:30;;;;;;;3.70;3.40;;;16.70;99.90;;;;;;5022443;28;20570;-51
2021/10/03 05:26:56;;;;;;;4.20;3.90;;;16.60;99.90;;;;;;5023374;28;20218;-51
2021/10/03 05:29:22;;;;;;;4.23;3.83;;;16.40;99.90;;;;;;5027141;28;20304;-51
2021/10/03 05:31:47;;;;;;;3.70;3.40;;;16.50;99.90;;;;;;5021080;28;20448;-51
2021/10/03 05:34:13;;;;;;;3.73;3.40;;;16.70;99.90;;;;;;5035796;28;20277;-51
2021/10/03 05:36:39;;;;;;;4.00;3.70;;;16.60;99.70;;;;;;5032848;28;20194;-51
2021/10/03 05:39:05;;;;;;;4.27;3.50;;;16.70;99.60;;;;;;5024044;28;20257;-51
2021/10/03 05:41:30;;;;;;;3.83;3.53;;;16.80;99.70;;;;;;5026515;28;20182;-51
2021/10/03 05:43:56;;;;;;;4.40;4.00;;;16.80;99.70;;;;;;5025611;28;20920;-51
2021/10/03 05:46:23;;;;;;;4.35;3.95;;;16.60;99.70;;;;;;5026604;28;20186;-51
2021/10/03 05:48:49;;;;;;;4.28;3.88;;;16.70;99.40;;;;;;5032042;28;20233;-51
2021/10/03 05:51:14;;;;;;;4.03;3.70;;;16.90;98.50;;;;;;5023816;28;20271;-50
2021/10/03 05:53:40;;;;;;;3.93;3.60;;;17.10;99.00;;;;;;5033713;28;20272;-51
2021/10/03 05:56:06;;;;;;;3.63;3.33;;;17.20;99.80;;;;;;5036726;28;20193;-51
2021/10/03 05:58:33;;;;;;;3.63;3.33;;;16.90;99.00;;;;;;5031673;28;20499;-51
2021/10/03 06:00:59;;;;;;;4.30;4.00;;;16.90;98.10;;;;;;5021258;28;20269;-51
2021/10/03 06:03:25;;;;;;;4.40;4.00;;;17.10;98.10;;;;;;5029645;28;20182;-51
2021/10/03 06:05:51;;;;;;;4.30;3.90;;;17.20;99.10;;;;;;5033787;28;20544;-51
2021/10/03 06:08:16;;;;;;;3.53;3.13;;;17.00;98.70;;;;;;5036253;28;20209;-51
2021/10/03 06:10:45;;;;;;;3.87;3.57;;;17.00;98.40;;;;;;5028615;28;20232;-51
2021/10/03 06:13:11;;;;;;;3.63;3.35;;;17.30;98.60;;;;;;5030805;28;20494;-51
2021/10/03 06:15:44;;;;;;;4.80;3.55;;;17.10;98.20;;;;;;5023110;28;20735;-52
2021/10/03 06:18:11;;;;;;;4.43;3.60;;;17.20;98.10;;;;;;5025561;28;20217;-52
2021/10/03 06:20:37;;;;;;;4.38;3.90;;;17.10;98.00;;;;;;5028930;28;20190;-52
2021/10/03 06:23:03;;;;;;;4.90;3.70;;;17.20;98.00;;;;;;5023829;28;20194;-51
2021/10/03 06:25:29;;;;;;;3.80;3.50;;;17.30;98.00;;;;;;5030570;28;20218;-52
2021/10/03 06:27:54;;;;;;;3.73;3.43;;;17.40;98.00;;;;;;5030237;28;20611;-51
2021/10/03 06:30:21;;;;;;;3.60;3.30;;;17.30;97.80;;;;;;5026854;28;20194;-51
2021/10/03 06:32:47;;;;;;;3.30;3.10;;;17.40;97.70;;;;;;5033820;28;20198;-51
2021/10/03 06:35:12;;;;;;;3.50;3.30;;;17.60;97.80;;;;;;5029094;28;20194;-52
2021/10/03 06:37:38;;;;;;;3.73;3.43;;;17.70;96.30;;;;;;5028470;28;20441;-50
2021/10/03 06:40:06;;;;;;;3.70;3.40;;;17.90;95.00;;;;;;5027613;28;20209;-51
2021/10/03 06:42:32;;;;;;;3.90;3.58;;;18.10;95.80;;;;;;5025218;28;20537;-54
2021/10/03 06:44:57;;;;;;;3.80;3.30;;;18.30;96.60;;;;;;5020512;28;20735;-52
2021/10/03 06:47:23;;;;;;;3.13;2.70;;;18.40;96.10;;;;;;5029107;28;20428;-52
2021/10/03 06:49:49;;;;;;;3.17;2.87;;;18.60;92.70;;;;;;5028497;28;20243;-52
2021/10/03 06:52:15;;;;;;;3.50;3.20;;;18.80;93.20;;;;;;5029652;28;20178;-52
2021/10/03 06:54:40;;;;;;;3.57;3.27;;;18.80;94.40;;;;;;5028411;28;20603;-52
2021/10/03 06:57:06;;;;;;;3.07;2.87;;;18.80;94.50;;;;;;5033585;28;20186;-51
2021/10/03 06:59:33;;;;;;;4.23;3.90;;;18.90;94.10;;;;;;5028192;28;20845;-51
2021/10/03 07:02:07;;;;;;;3.65;3.28;;;19.00;94.20;;;;;;5033362;28;20814;-52
2021/10/03 07:04:33;;;;;;;3.67;3.38;;;19.10;93.80;;;;;;5031963;28;20181;-51
2021/10/03 07:06:59;;;;;;;3.50;3.20;;;19.10;93.50;;;;;;5031457;28;20186;-52
2021/10/03 07:09:25;;;;;;;3.67;3.38;;;19.20;93.60;;;;;;5032289;28;20459;-51
2021/10/03 07:11:52;;;;;;;3.40;3.17;;;19.40;93.50;;;;;;5033009;28;20186;-52
2021/10/03 07:14:18;;;;;;;4.30;3.20;;;19.40;93.70;;;;;;5027324;28;20187;-52
2021/10/03 07:16:43;;;;;;;3.33;3.07;;;19.40;93.50;;;;;;5036334;28;20201;-51
2021/10/03 07:19:09;;;;;;;3.23;3.03;;;19.40;93.30;;;;;;5036886;28;20503;-52
2021/10/03 07:21:35;;;;;;;3.80;3.50;;;19.50;93.40;;;;;;5034086;28;20209;-52
2021/10/03 07:24:01;;;;;;;3.50;3.30;;;19.40;93.40;;;;;;5022444;28;20182;-51
2021/10/03 07:26:26;;;;;;;3.67;3.07;;;19.40;93.60;;;;;;5028262;28;20532;-51
2021/10/03 07:28:52;;;;;;;5.00;3.30;;;19.40;93.50;;;;;;5033067;28;20209;-51
2021/10/03 07:31:19;;;;;;;4.20;3.80;;;19.40;93.50;;;;;;5031859;28;20174;-51
2021/10/03 07:33:45;;;;;;;3.58;3.28;;;19.40;93.70;;;;;;5044399;28;20212;-51
2021/10/03 07:36:11;;;;;;;3.60;3.30;;;19.40;94.00;;;;;;5045890;28;20571;-52
2021/10/03 07:38:37;;;;;;;3.87;3.57;;;19.50;94.00;;;;;;5035282;28;20428;-51
2021/10/03 07:41:03;;;;;;;3.37;2.83;;;19.60;94.00;;;;;;5027712;28;20182;-52
2021/10/03 07:43:28;;;;;;;3.60;3.30;;;19.60;92.70;;;;;;5032789;28;20723;-51
2021/10/03 07:45:54;;;;;;;3.47;3.17;;;19.70;93.20;;;;;;5030788;28;20277;-51
2021/10/03 07:48:20;;;;;;;2.83;2.63;;;19.80;93.30;;;;;;5032120;28;20515;-52
2021/10/03 07:50:46;;;;;;;3.07;2.87;;;19.80;92.80;;;;;;5035383;28;20484;-51
2021/10/03 07:53:12;;;;;;;3.43;3.13;;;19.80;92.80;;;;;;5024923;28;20653;-50
2021/10/03 07:55:37;;;;;;;3.13;2.77;;;19.90;93.20;;;;;;5036785;28;20315;-51
2021/10/03 07:58:03;;;;;;;3.63;2.97;;;20.00;92.90;;;;;;5029912;28;20206;-50
2021/10/03 08:00:30;;;;;;;3.67;3.37;;;20.20;93.10;;;;;;5032939;28;20227;-51
2021/10/03 08:02:56;;;;;;;3.40;3.10;;;20.20;93.10;;;;;;5031242;28;20186;-51
2021/10/03 08:05:22;;;;;;;3.20;2.90;;;20.40;92.60;;;;;;5031092;28;20217;-50
2021/10/03 08:07:48;;;;;;;6.53;3.37;;;20.40;92.00;;;;;;5030556;28;20456;-51
2021/10/03 08:10:14;;;;;;;3.63;3.33;;;20.50;91.90;;;;;;5027200;28;20244;-51
2021/10/03 08:12:40;;;;;;;3.42;3.13;;;20.60;91.60;;;;;;5031174;28;20277;-51
2021/10/03 08:15:06;;;;;;;3.33;2.80;;;20.70;91.50;;;;;;5030518;28;20187;-50
2021/10/03 08:17:32;;;;;;;3.45;2.97;;;20.80;91.20;;;;;;5031894;28;20703;-51
2021/10/03 08:19:58;;;;;;;3.67;3.33;;;20.90;91.00;;;;;;5030462;28;20217;-50
2021/10/03 08:22:23;;;;;;;3.00;2.80;;;20.90;90.90;;;;;;5026108;28;20186;-51
2021/10/03 08:24:49;;;;;;;3.17;2.77;;;20.90;90.40;;;;;;5033819;28;20194;-50
2021/10/03 08:27:15;;;;;;;3.13;2.87;;;21.00;90.80;;;;;;5031487;28;20182;-51
2021/10/03 08:29:41;;;;;;;3.23;2.93;;;21.10;90.30;;;;;;5028986;28;20209;-51
2021/10/03 08:32:07;;;;;;;3.40;3.20;;;21.20;91.00;;;;;;5027068;28;20202;-50
2021/10/03 08:34:33;;;;;;;3.97;3.40;;;21.40;91.00;;;;;;5029530;28;20196;-51
2021/10/03 08:36:59;;;;;;;2.70;2.50;;;21.40;90.70;;;;;;5030689;28;20441;-51
2021/10/03 08:39:25;;;;;;;3.50;3.20;;;21.30;90.70;;;;;;5029240;28;20676;-51
2021/10/03 08:41:51;;;;;;;4.75;3.30;;;21.30;90.80;;;;;;5030996;28;20441;-50
2021/10/03 08:44:18;;;;;;;3.47;3.17;;;21.30;90.70;;;;;;5028973;28;20229;-50
2021/10/03 08:46:45;;;;;;;3.08;2.78;;;21.20;90.80;;;;;;5029840;28;20324;-49
2021/10/03 08:49:11;;;;;;;4.15;3.75;;;21.20;91.10;;;;;;5030451;28;20217;-50
2021/10/03 08:51:37;;;;;;;3.60;3.30;;;21.30;91.40;;;;;;5029033;28;20190;-50
2021/10/03 08:54:03;;;;;;;3.90;3.07;;;21.30;91.40;;;;;;5028820;28;20194;-49
2021/10/03 08:56:29;;;;;;;4.32;3.53;;;21.30;91.40;;;;;;5032967;28;20339;-51
2021/10/03 08:58:55;;;;;;;2.83;2.63;;;21.50;91.30;;;;;;5028833;28;20218;-50
2021/10/03 09:01:22;;;;;;;3.30;3.00;;;21.50;91.00;;;;;;5026593;28;20194;-51
2021/10/03 09:03:48;;;;;;;3.90;3.50;;;21.50;90.80;;;;;;5027013;28;20191;-50
2021/10/03 09:06:13;;;;;;;3.22;3.03;;;21.50;90.90;;;;;;5024257;28;20244;-50
2021/10/03 09:08:47;;;;;;;3.30;3.00;;;21.60;90.20;;;;;;5026982;28;20246;-50
2021/10/03 09:11:14;;;;;;;3.72;2.95;;;21.60;90.30;;;;;;5027211;28;20182;-50
2021/10/03 09:13:43;;;;;;;2.80;2.60;;;21.50;89.70;;;;;;5034869;28;20569;-50
2021/10/03 09:16:33;;;;;;;3.35;3.05;;;21.50;90.50;;;;;;5027658;28;20192;-50
2021/10/03 09:19:10;;;;;;;3.60;3.30;;;21.40;90.60;;;;;;5030069;28;20317;-50
2021/10/03 09:21:41;;;;;;;4.57;3.72;;;21.20;90.80;;;;;;5026832;28;20285;-51
2021/10/03 09:24:14;;;;;;;3.60;3.30;;;21.30;90.90;;;;;;5028212;28;20186;-50
2021/10/03 09:27:03;;;;;;;3.50;3.20;;;21.40;90.50;;;;;;5034948;28;20182;-50
2021/10/03 09:29:36;;;;;;;3.40;3.10;;;21.50;91.70;;;;;;5023272;28;20244;-50
2021/10/03 09:32:20;;;;;;;4.45;3.20;;;21.50;91.40;;;;;;5033901;28;20193;-50
2021/10/03 09:34:49;;;;;;;3.10;2.78;;;21.60;88.00;;;;;;5021879;28;20552;-50
2021/10/03 09:37:29;;;;;;;3.30;3.00;;;21.70;87.80;;;;;;5025464;28;20182;-50
2021/10/03 09:40:09;;;;;;;4.68;4.28;;;21.70;86.90;;;;;;5029342;28;20272;-50
2021/10/03 09:42:36;;;;;;;5.53;4.70;;;21.70;90.30;;;;;;5032870;28;20584;-50
2021/10/03 09:45:11;;;;;;;3.22;2.90;;;21.70;90.70;;;;;;5022982;28;20192;-50
2021/10/03 09:47:38;;;;;;;3.50;3.20;;;21.80;90.30;;;;;;5027263;28;20178;-50
2021/10/03 09:50:07;;;;;;;3.40;3.10;;;22.00;90.70;;;;;;5031923;28;20460;-50
2021/10/03 09:52:33;;;;;;;3.83;3.53;;;22.10;91.30;;;;;;5021259;28;20441;-50
2021/10/03 09:55:04;;;;;;;4.10;3.78;;;22.10;91.40;;;;;;5025695;28;20581;-51
2021/10/03 09:57:30;;;;;;;4.37;3.97;;;22.20;91.60;;;;;;5030528;28;20212;-50
2021/10/03 09:59:57;;;;;;;4.03;3.73;;;22.10;91.70;;;;;;5036340;28;20556;-50
2021/10/03 10:02:23;;;;;;;4.85;4.35;;;22.00;91.80;;;;;;5028775;28;20178;-50
2021/10/03 10:04:50;;;;;;;4.75;4.35;;;22.00;92.10;;;;;;5029655;28;20201;-50
2021/10/03 10:07:19;;;;;;;5.10;4.60;;;22.00;92.60;;;;;;5027841;28;20639;-50
2021/10/03 10:09:48;;;;;;;4.10;3.70;;;21.90;93.00;;;;;;5026633;28;20255;-51
2021/10/03 10:12:21;;;;;;;4.93;3.37;;;21.90;93.10;;;;;;5030224;28;20628;-50
2021/10/03 10:14:57;;;;;;;3.80;3.30;;;21.90;93.20;;;;;;5025139;28;20953;-51
2021/10/03 10:17:38;;;;;;;4.20;3.80;;;21.80;93.40;;;;;;5028415;28;20276;-51
2021/10/03 10:20:27;;;;;;;4.15;3.78;;;21.90;93.60;;;;;;5029000;28;20206;-50
2021/10/03 10:22:58;;;;;;;6.35;3.42;;;21.80;94.00;;;;;;5022527;28;20271;-50
2021/10/03 10:25:54;;;;;;;4.60;3.75;;;21.90;93.80;;;;;;5027496;28;20184;-51
2021/10/03 10:28:29;;;;;;;4.30;3.92;;;21.90;93.40;;;;;;5029590;28;20221;-51
2021/10/03 10:31:12;;;;;;;5.15;4.20;;;22.10;92.90;;;;;;5028778;28;20173;-50
2021/10/03 10:33:50;;;;;;;4.60;4.20;;;22.40;92.80;;;;;;5029583;28;20478;-51
2021/10/03 10:36:31;;;;;;;3.83;2.90;;;22.50;92.80;;;;;;5027867;28;20510;-50
2021/10/03 10:39:10;;;;;;;3.50;3.20;;;22.50;92.20;;;;;;5029971;28;20576;-50
2021/10/03 10:41:41;;;;;;;3.30;3.00;;;22.50;92.20;;;;;;5026738;28;20498;-50
2021/10/03 10:44:26;;;;;;;4.43;3.33;;;22.60;91.80;;;;;;5030635;28;20473;-50
2021/10/03 10:46:56;;;;;;;4.50;3.30;;;22.50;91.70;;;;;;5026865;28;20586;-50
2021/10/03 10:49:41;;;;;;;3.60;3.30;;;22.50;92.20;;;;;;5017780;28;20464;-50
2021/10/03 10:52:22;;;;;;;5.53;3.10;;;22.70;92.10;;;;;;5026675;28;20453;-51
2021/10/03 10:55:06;;;;;;;4.97;4.03;;;22.90;92.30;;;;;;5023036;28;20451;-51
2021/10/03 10:57:53;;;;;;;3.83;3.43;;;23.00;92.30;;;;;;5024264;28;20445;-51
2021/10/03 11:00:28;;;;;;;4.60;4.20;;;23.00;92.10;;;;;;5023729;28;20471;-52
2021/10/03 11:03:01;;;;;;;4.03;3.60;;;22.90;92.10;;;;;;5026694;28;20853;-51
2021/10/03 11:05:46;;;;;;;4.40;3.97;;;22.70;92.20;;;;;;5026845;28;20479;-48
2021/10/03 11:08:17;;;;;;;3.80;3.50;;;22.70;92.50;;;;;;5027590;28;20461;-50
2021/10/03 11:10:58;;;;;;;3.83;3.50;;;22.80;92.20;;;;;;5027427;28;20982;-49
2021/10/03 11:13:46;;;;;;;27.17;24.47;;;22.90;92.60;;;;;;5025643;28;20921;-50
2021/10/03 11:16:31;;;;;;;5.70;4.60;;;23.00;93.00;;;;;;5029649;28;20464;-50
2021/10/03 11:19:07;;;;;;;4.33;4.03;;;23.00;92.70;;;;;;5026440;28;20564;-50
2021/10/03 11:21:39;;;;;;;5.23;4.60;;;23.00;93.20;;;;;;5020462;28;20927;-50
2021/10/03 11:24:11;;;;;;;4.80;4.17;;;23.00;92.70;;;;;;5027138;28;20437;-50
2021/10/03 11:26:54;;;;;;;5.37;4.87;;;22.90;92.00;;;;;;5026061;28;20860;-50
2021/10/03 11:29:29;;;;;;;4.97;4.53;;;22.70;93.40;;;;;;5024531;28;20461;-50
2021/10/03 11:32:04;;;;;;;5.63;5.13;;;22.90;93.40;;;;;;5019870;28;20488;-50
2021/10/03 11:34:41;;;;;;;4.80;4.40;;;22.90;93.40;;;;;;5023137;28;20810;-50
2021/10/03 11:37:25;;;;;;;4.50;4.10;;;23.00;93.70;;;;;;5030009;28;20436;-50
2021/10/03 11:39:56;;;;;;;4.77;4.37;;;23.00;93.80;;;;;;5026378;28;20840;-51
2021/10/03 11:42:30;;;;;;;4.07;3.67;;;23.10;93.20;;;;;;5025888;28;20463;-52
2021/10/03 11:45:05;;;;;;;3.97;3.53;;;23.10;92.70;;;;;;5026144;28;20619;-52
2021/10/03 11:47:43;;;;;;;4.30;3.90;;;23.10;92.60;;;;;;5029052;28;20445;-50
2021/10/03 11:50:12;;;;;;;5.30;4.33;;;23.00;94.00;;;;;;5021416;28;20454;-50
2021/10/03 11:52:38;;;;;;;5.23;4.30;;;22.90;94.10;;;;;;5029533;28;20514;-51
2021/10/03 11:55:34;;;;;;;3.77;3.43;;;22.80;93.80;;;;;;5028497;28;20432;-51
2021/10/03 11:58:06;;;;;;;5.17;4.67;;;22.90;94.40;;;;;;5032313;28;21020;-49
2021/10/03 12:00:46;;;;;;;4.10;3.70;;;22.90;93.90;;;;;;5032308;28;20563;-50
2021/10/03 12:03:12;;;;;;;3.40;3.10;;;22.90;93.70;;;;;;5014815;28;20802;-52
2021/10/03 12:05:38;;;;;;;4.00;3.40;;;23.00;94.50;;;;;;5031768;28;20429;-51
2021/10/03 12:08:12;;;;;;;4.23;3.90;;;22.90;94.80;;;;;;5025500;28;20496;-50
2021/10/03 12:10:45;;;;;;;4.80;3.90;;;23.00;94.80;;;;;;5024757;28;20224;-49
2021/10/03 12:13:11;;;;;;;3.93;3.60;;;23.00;93.90;;;;;;5024135;28;20429;-50
2021/10/03 12:15:44;;;;;;;3.53;3.23;;;23.20;94.60;;;;;;5027996;28;20937;-50
2021/10/03 12:18:32;;;;;;;5.30;4.80;;;23.40;94.50;;;;;;5034903;28;20452;-50
2021/10/03 12:21:02;;;;;;;4.50;4.10;;;23.50;94.00;;;;;;5030389;28;20445;-49
2021/10/03 12:23:46;;;;;;;4.90;4.40;;;23.50;93.90;;;;;;5030000;28;20429;-50
2021/10/03 12:26:28;;;;;;;5.20;4.23;;;23.60;93.70;;;;;;5030964;28;20977;-51
2021/10/03 12:29:06;;;;;;;4.10;3.80;;;23.60;93.50;;;;;;5034450;28;21004;-50
2021/10/03 12:31:34;;;;;;;4.97;4.20;;;23.70;93.70;;;;;;5030498;28;20441;-50
2021/10/03 12:34:00;;;;;;;5.07;4.10;;;23.70;93.50;;;;;;5031838;28;20437;-51
2021/10/03 12:36:26;;;;;;;4.13;3.83;;;23.70;93.40;;;;;;5039802;28;20726;-50
2021/10/03 12:38:52;;;;;;;4.60;4.20;;;23.80;93.50;;;;;;5031673;28;20468;-49
2021/10/03 12:41:17;;;;;;;4.77;4.27;;;23.80;93.20;;;;;;5035477;28;20182;-50
2021/10/03 12:43:51;;;;;;;4.17;3.63;;;23.90;93.50;;;;;;5030638;28;20552;-47
2021/10/03 12:46:16;;;;;;;5.60;4.63;;;24.00;93.40;;;;;;5029362;28;20251;-51
2021/10/03 12:48:42;;;;;;;4.27;3.87;;;24.10;93.50;;;;;;5024317;28;20973;-50
2021/10/03 12:51:08;;;;;;;5.60;3.73;;;24.20;93.30;;;;;;5030084;28;20445;-51
2021/10/03 12:53:35;;;;;;;3.63;3.33;;;24.30;93.40;;;;;;5026172;28;20486;-49
2021/10/03 12:56:00;;;;;;;4.20;3.90;;;24.40;93.10;;;;;;5041801;28;20535;-49